Time;durP1;ratioP1;P1;durP2;ratioP2;P2;SDS_P1;SDS_P2;PMS_P1;PMS_P2;Temp;Humidity;BMP_temperature;BMP_pressure;BME280_temperature;BME280_humidity;BME280_pressure;Samples;Min_cycle;Max_cycle;Signal;HPM_P1;HPM_P2
2023/05/25 00:02:03;;;;;;;9.98;4.70;;;8.60;99.90;;;;;;5049223;28;20048;-79
2023/05/25 00:04:35;;;;;;;7.90;3.85;;;8.50;99.90;;;;;;5068399;28;20052;-80
2023/05/25 00:07:01;;;;;;;6.15;4.20;;;8.50;99.90;;;;;;5047910;28;20053;-80
2023/05/25 00:09:27;;;;;;;6.65;4.20;;;8.50;99.90;;;;;;5067951;28;20055;-79
2023/05/25 00:11:53;;;;;;;10.85;4.75;;;8.40;99.90;;;;;;5049831;28;20040;-79
2023/05/25 00:14:19;;;;;;;7.50;4.38;;;8.40;99.90;;;;;;5048579;28;20056;-79
2023/05/25 00:16:47;;;;;;;9.70;4.45;;;8.40;99.90;;;;;;5048556;28;20056;-79
2023/05/25 00:19:13;;;;;;;9.60;4.63;;;8.40;99.90;;;;;;5065795;28;20142;-79
2023/05/25 00:21:40;;;;;;;8.73;4.18;;;8.40;99.90;;;;;;5038152;28;20044;-79
2023/05/25 00:24:06;;;;;;;11.52;5.40;;;8.40;99.90;;;;;;5050030;28;20057;-79
2023/05/25 00:26:33;;;;;;;8.75;4.50;;;8.30;99.90;;;;;;5051909;28;20083;-79
2023/05/25 00:28:59;;;;;;;9.25;4.50;;;8.30;99.90;;;;;;5068725;28;20051;-79
2023/05/25 00:31:26;;;;;;;11.10;4.95;;;8.30;99.90;;;;;;5069541;28;20045;-79
2023/05/25 00:33:52;;;;;;;9.73;4.75;;;8.30;99.90;;;;;;5049354;28;20129;-79
2023/05/25 00:36:17;;;;;;;7.50;3.88;;;8.30;99.90;;;;;;5045762;28;20081;-79
2023/05/25 00:38:43;;;;;;;10.45;4.55;;;8.30;99.90;;;;;;5067878;28;20114;-80
2023/05/25 00:41:08;;;;;;;8.85;4.45;;;8.20;99.90;;;;;;5067670;28;20052;-79
2023/05/25 00:43:34;;;;;;;11.50;4.40;;;8.20;99.90;;;;;;5065350;28;20065;-79
2023/05/25 00:46:01;;;;;;;9.07;4.45;;;8.20;99.90;;;;;;5067818;28;20051;-79
2023/05/25 00:48:27;;;;;;;12.27;4.78;;;8.20;99.90;;;;;;5047140;28;20448;-79
2023/05/25 00:50:56;;;;;;;8.35;4.45;;;8.10;99.90;;;;;;5049322;28;20196;-79
2023/05/25 00:53:23;;;;;;;10.38;4.82;;;8.10;99.90;;;;;;5067683;28;20036;-79
2023/05/25 00:56:04;;;;;;;7.10;3.95;;;8.10;99.90;;;;;;5065877;28;20372;-79
2023/05/25 00:58:33;;;;;;;8.65;4.55;;;8.10;99.90;;;;;;5067600;28;20115;-79
2023/05/25 01:01:00;;;;;;;7.60;4.22;;;8.00;99.90;;;;;;5067789;28;20047;-79
2023/05/25 01:03:29;;;;;;;7.13;4.28;;;8.00;99.90;;;;;;5048535;28;20083;-79
2023/05/25 01:05:56;;;;;;;6.85;4.18;;;8.00;99.90;;;;;;5065686;28;20044;-79
2023/05/25 01:08:23;;;;;;;9.52;4.10;;;8.00;99.90;;;;;;5032401;28;20076;-79
2023/05/25 01:10:51;;;;;;;6.97;4.43;;;7.90;99.90;;;;;;5063223;28;20127;-79
2023/05/25 01:13:18;;;;;;;6.90;4.15;;;7.90;99.90;;;;;;5046718;28;20044;-79
2023/05/25 01:15:46;;;;;;;7.32;4.28;;;7.90;99.90;;;;;;5048557;28;20052;-79
2023/05/25 01:18:16;;;;;;;9.35;4.50;;;7.90;99.90;;;;;;5066902;28;20169;-79
2023/05/25 01:21:16;;;;;;;10.43;4.75;;;7.80;99.90;;;;;;5049844;28;20033;-79
2023/05/25 01:24:03;;;;;;;9.50;4.75;;;7.80;99.90;;;;;;5028897;28;20048;-79
2023/05/25 01:26:33;;;;;;;8.13;4.97;;;7.80;99.90;;;;;;5046450;28;20059;-79
2023/05/25 01:29:02;;;;;;;9.18;4.70;;;7.70;99.90;;;;;;5036716;28;20045;-79
2023/05/25 01:31:28;;;;;;;7.82;4.70;;;7.70;99.90;;;;;;5034409;28;20055;-79
2023/05/25 01:33:55;;;;;;;9.20;4.93;;;7.70;99.90;;;;;;5048934;28;20044;-79
2023/05/25 01:36:21;;;;;;;9.10;5.22;;;7.70;99.90;;;;;;5063221;28;20183;-79
2023/05/25 01:38:47;;;;;;;9.20;4.43;;;7.70;99.90;;;;;;5065812;28;20134;-79
2023/05/25 01:41:14;;;;;;;6.70;4.38;;;7.60;99.90;;;;;;5047773;28;20040;-79
2023/05/25 01:43:40;;;;;;;8.70;4.82;;;7.60;99.90;;;;;;5032277;28;20537;-79
2023/05/25 01:46:22;;;;;;;12.27;4.75;;;7.60;99.90;;;;;;5063881;28;20051;-79
2023/05/25 01:49:07;;;;;;;8.50;3.93;;;7.60;99.90;;;;;;5042276;28;20171;-79
2023/05/25 01:51:43;;;;;;;5.80;4.25;;;7.50;99.90;;;;;;5023630;28;20061;-79
2023/05/25 01:54:18;;;;;;;9.27;4.47;;;7.50;99.90;;;;;;5027737;28;20045;-79
2023/05/25 01:56:45;;;;;;;7.22;4.30;;;7.50;99.90;;;;;;5042121;28;20044;-79
2023/05/25 01:59:13;;;;;;;9.82;4.47;;;7.50;99.90;;;;;;5029241;28;20048;-79
2023/05/25 02:01:40;;;;;;;10.77;4.68;;;7.50;99.90;;;;;;5043605;28;20131;-79
2023/05/25 02:04:06;;;;;;;8.65;4.93;;;7.40;99.90;;;;;;5045694;28;20514;-79
2023/05/25 02:06:32;;;;;;;9.27;4.70;;;7.50;99.90;;;;;;5045845;28;20124;-79
2023/05/25 02:08:57;;;;;;;11.05;6.07;;;7.50;99.90;;;;;;5044898;28;20053;-79
2023/05/25 02:11:23;;;;;;;12.95;5.20;;;7.50;99.90;;;;;;5045952;28;20106;-79
2023/05/25 02:13:48;;;;;;;8.25;4.80;;;7.50;99.90;;;;;;5041424;28;20079;-79
2023/05/25 02:16:14;;;;;;;6.47;4.85;;;7.50;99.90;;;;;;5044186;28;20052;-79
2023/05/25 02:18:43;;;;;;;11.70;7.28;;;7.50;99.90;;;;;;5041371;28;20052;-79
2023/05/25 02:21:09;;;;;;;10.95;6.22;;;7.50;99.90;;;;;;5044675;28;20541;-79
2023/05/25 02:23:35;;;;;;;14.93;6.38;;;7.50;99.90;;;;;;5045648;28;20048;-79
2023/05/25 02:26:00;;;;;;;12.68;6.88;;;7.50;99.90;;;;;;5044269;28;20490;-79
2023/05/25 02:28:26;;;;;;;11.43;7.07;;;7.50;99.90;;;;;;5048891;28;20037;-79
2023/05/25 02:30:51;;;;;;;9.77;6.22;;;7.60;99.90;;;;;;5049673;28;20420;-78
2023/05/25 02:33:17;;;;;;;9.80;5.95;;;7.60;99.90;;;;;;5047550;28;20056;-79
2023/05/25 02:35:43;;;;;;;10.70;5.60;;;7.60;99.90;;;;;;5046278;28;20041;-78
2023/05/25 02:38:08;;;;;;;7.63;5.47;;;7.50;99.90;;;;;;5042003;28;20113;-80
2023/05/25 02:40:34;;;;;;;7.90;5.40;;;7.50;99.90;;;;;;5038116;28;20461;-79
2023/05/25 02:43:00;;;;;;;11.57;6.18;;;7.50;99.90;;;;;;5047806;28;20040;-78
2023/05/25 02:45:25;;;;;;;9.45;6.00;;;7.50;99.90;;;;;;5046077;28;20079;-79
2023/05/25 02:47:51;;;;;;;9.00;5.15;;;7.50;99.90;;;;;;5057259;28;20056;-79
2023/05/25 02:50:16;;;;;;;14.05;6.15;;;7.50;99.90;;;;;;5066015;28;20060;-79
2023/05/25 02:52:42;;;;;;;10.93;5.38;;;7.50;99.90;;;;;;5067562;28;20048;-79
2023/05/25 02:55:12;;;;;;;11.80;5.40;;;7.40;99.90;;;;;;5069416;28;20127;-79
2023/05/25 02:57:38;;;;;;;7.63;5.07;;;7.50;99.90;;;;;;5049430;28;20049;-80
2023/05/25 03:00:06;;;;;;;10.07;5.32;;;7.40;99.90;;;;;;5069378;28;20048;-80
2023/05/25 03:02:32;;;;;;;13.32;5.40;;;7.40;99.90;;;;;;5051864;28;20098;-80
2023/05/25 03:04:59;;;;;;;8.73;5.10;;;7.40;99.90;;;;;;5069655;28;20044;-80
2023/05/25 03:07:25;;;;;;;10.90;5.22;;;7.40;99.90;;;;;;5049494;28;20503;-80
2023/05/25 03:09:51;;;;;;;8.52;5.95;;;7.30;99.90;;;;;;5048757;28;20048;-80
2023/05/25 03:12:17;;;;;;;10.02;5.25;;;7.30;99.90;;;;;;5048923;28;20460;-80
2023/05/25 03:14:43;;;;;;;8.85;4.95;;;7.40;99.90;;;;;;5064868;28;20058;-80
2023/05/25 03:17:08;;;;;;;14.38;6.13;;;7.30;99.90;;;;;;5066488;28;20055;-79
2023/05/25 03:19:34;;;;;;;6.20;5.28;;;7.30;99.90;;;;;;5049380;28;20406;-80
2023/05/25 03:22:01;;;;;;;10.93;5.60;;;7.40;99.90;;;;;;5070694;28;20078;-80
2023/05/25 03:24:27;;;;;;;14.52;5.80;;;7.40;99.90;;;;;;5068030;28;20045;-79
2023/05/25 03:26:53;;;;;;;12.30;5.40;;;7.40;99.90;;;;;;5064776;28;20455;-80
2023/05/25 03:29:18;;;;;;;11.05;6.07;;;7.40;99.90;;;;;;5069306;28;20037;-80
2023/05/25 03:31:44;;;;;;;10.65;5.72;;;7.40;99.90;;;;;;5070561;28;20082;-80
2023/05/25 03:34:10;;;;;;;12.60;5.75;;;7.40;99.90;;;;;;5068202;28;20049;-80
2023/05/25 03:36:37;;;;;;;9.43;5.50;;;7.40;99.90;;;;;;5035381;28;20047;-80
2023/05/25 03:39:03;;;;;;;8.57;5.82;;;7.40;99.90;;;;;;5065212;28;20049;-80
2023/05/25 03:41:29;;;;;;;12.50;6.28;;;7.40;99.90;;;;;;5034026;28;20061;-80
2023/05/25 03:43:55;;;;;;;11.88;6.20;;;7.40;99.90;;;;;;5050465;28;20049;-80
2023/05/25 03:46:20;;;;;;;11.55;5.88;;;7.40;99.90;;;;;;5049905;28;20048;-80
2023/05/25 03:48:46;;;;;;;8.88;5.95;;;7.50;99.90;;;;;;5066676;28;20088;-80
2023/05/25 03:51:12;;;;;;;8.88;4.85;;;7.50;99.90;;;;;;5066964;28;20123;-79
2023/05/25 03:53:37;;;;;;;7.15;4.47;;;7.50;99.90;;;;;;5060883;28;20098;-78
2023/05/25 03:56:03;;;;;;;8.43;5.47;;;7.50;99.90;;;;;;5066446;28;20120;-78
2023/05/25 03:58:28;;;;;;;11.52;6.00;;;7.50;99.90;;;;;;5051597;28;20041;-78
2023/05/25 04:00:55;;;;;;;11.50;5.68;;;7.70;99.90;;;;;;5049363;28;20547;-78
2023/05/25 04:03:21;;;;;;;9.07;5.70;;;7.50;99.90;;;;;;5050625;28;20060;-78
2023/05/25 04:05:46;;;;;;;12.27;5.63;;;7.50;99.90;;;;;;5067457;28;20467;-78
2023/05/25 04:08:16;;;;;;;10.43;6.25;;;7.50;99.90;;;;;;5050966;28;20055;-78
2023/05/25 04:10:44;;;;;;;10.57;6.25;;;7.60;99.90;;;;;;5067744;28;20052;-78
2023/05/25 04:13:10;;;;;;;9.65;5.88;;;7.70;99.90;;;;;;5049728;28;20120;-78
2023/05/25 04:15:36;;;;;;;10.77;6.00;;;7.70;99.90;;;;;;5068666;28;20052;-78
2023/05/25 04:18:02;;;;;;;11.82;6.28;;;7.70;99.90;;;;;;5066681;28;20048;-78
2023/05/25 04:20:28;;;;;;;9.50;6.00;;;7.80;99.90;;;;;;5033394;28;20047;-78
2023/05/25 04:22:54;;;;;;;10.52;6.53;;;7.90;99.90;;;;;;5067736;28;20048;-78
2023/05/25 04:25:20;;;;;;;14.32;6.28;;;7.90;99.90;;;;;;5068617;28;20097;-78
2023/05/25 04:27:45;;;;;;;15.45;6.45;;;8.00;99.90;;;;;;5067845;28;20048;-78
2023/05/25 04:30:12;;;;;;;14.13;6.47;;;8.00;99.90;;;;;;5049158;28;20052;-78
2023/05/25 04:32:38;;;;;;;12.45;5.80;;;8.10;99.90;;;;;;5050346;28;20057;-78
2023/05/25 04:35:04;;;;;;;9.68;5.68;;;8.10;99.90;;;;;;5066979;28;20041;-78
2023/05/25 04:37:31;;;;;;;10.50;5.90;;;8.20;99.90;;;;;;5049759;28;20051;-78
2023/05/25 04:39:57;;;;;;;10.90;5.47;;;8.30;99.90;;;;;;5049787;28;20512;-81
2023/05/25 04:42:23;;;;;;;9.05;5.82;;;8.30;99.90;;;;;;5047708;28;20036;-80
2023/05/25 04:44:52;;;;;;;10.98;5.93;;;8.40;99.90;;;;;;5066508;28;20037;-80
2023/05/25 04:47:18;;;;;;;13.35;6.03;;;8.50;99.90;;;;;;5066263;28;20091;-78
2023/05/25 04:49:43;;;;;;;11.15;5.43;;;8.60;99.90;;;;;;5048300;28;20048;-80
2023/05/25 04:52:09;;;;;;;12.63;5.80;;;8.70;99.90;;;;;;5048617;28;20036;-78
2023/05/25 04:54:35;;;;;;;10.60;5.82;;;8.80;99.90;;;;;;5066152;28;20181;-78
2023/05/25 04:57:01;;;;;;;13.40;5.90;;;8.90;99.90;;;;;;5032790;28;20543;-78
2023/05/25 04:59:26;;;;;;;14.40;6.80;;;9.00;99.90;;;;;;5050060;28;20051;-78
2023/05/25 05:01:52;;;;;;;17.00;6.13;;;9.10;99.90;;;;;;5068123;28;20036;-78
2023/05/25 05:04:18;;;;;;;14.73;7.32;;;9.20;99.90;;;;;;5047094;28;20190;-78
2023/05/25 05:06:43;;;;;;;13.80;6.07;;;9.30;99.90;;;;;;5038449;28;20036;-78
2023/05/25 05:09:09;;;;;;;15.25;6.20;;;9.30;99.90;;;;;;5047612;28;20098;-78
2023/05/25 05:11:34;;;;;;;13.13;6.78;;;9.60;99.90;;;;;;5065889;28;20138;-78
2023/05/25 05:14:00;;;;;;;15.98;6.63;;;9.80;99.90;;;;;;5067638;28;20052;-77
2023/05/25 05:16:26;;;;;;;13.15;6.95;;;10.00;99.90;;;;;;5046573;28;20056;-78
2023/05/25 05:18:51;;;;;;;13.85;6.25;;;10.10;99.90;;;;;;5065207;28;20047;-78
2023/05/25 05:21:17;;;;;;;13.55;6.70;;;10.20;99.90;;;;;;5066968;28;20051;-78
2023/05/25 05:23:42;;;;;;;10.77;6.22;;;10.30;99.90;;;;;;5065386;28;20184;-78
2023/05/25 05:26:10;;;;;;;14.68;6.82;;;10.40;99.90;;;;;;5046538;28;20199;-79
2023/05/25 05:28:36;;;;;;;11.35;6.20;;;10.50;99.90;;;;;;5047437;28;20045;-78
2023/05/25 05:31:02;;;;;;;12.68;6.03;;;10.70;99.90;;;;;;5050218;28;20052;-78
2023/05/25 05:33:27;;;;;;;16.30;6.05;;;10.70;99.90;;;;;;5068024;28;20059;-79
2023/05/25 05:35:53;;;;;;;11.93;6.30;;;11.00;99.90;;;;;;5063271;28;20047;-78
2023/05/25 05:38:19;;;;;;;11.43;5.88;;;11.80;99.90;;;;;;5066309;28;20036;-78
2023/05/25 05:40:44;;;;;;;13.10;6.72;;;13.10;99.90;;;;;;5065692;28;20051;-78
2023/05/25 05:43:12;;;;;;;15.07;5.93;;;14.20;99.90;;;;;;5061714;28;20165;-79
2023/05/25 05:45:37;;;;;;;12.68;6.32;;;15.20;99.90;;;;;;5067287;28;20217;-78
2023/05/25 05:48:03;;;;;;;12.40;6.57;;;16.00;99.90;;;;;;5067323;28;20127;-79
2023/05/25 05:50:29;;;;;;;17.00;6.20;;;16.70;99.90;;;;;;5049403;28;20044;-78
2023/05/25 05:52:55;;;;;;;10.93;5.68;;;17.30;99.90;;;;;;5048714;28;20151;-79
2023/05/25 05:55:21;;;;;;;11.32;5.13;;;17.70;99.90;;;;;;5066992;28;20127;-79
2023/05/25 05:57:46;;;;;;;10.45;4.97;;;18.20;99.90;;;;;;5068136;28;20048;-79
2023/05/25 06:00:13;;;;;;;10.38;5.45;;;18.40;99.90;;;;;;5049972;28;20123;-78
2023/05/25 06:02:38;;;;;;;10.98;5.35;;;18.70;99.90;;;;;;5030638;28;20048;-79
2023/05/25 06:05:04;;;;;;;13.95;5.30;;;19.00;99.90;;;;;;5068052;28;20407;-79
2023/05/25 06:07:33;;;;;;;9.57;5.45;;;19.20;99.90;;;;;;5049641;28;20049;-80
2023/05/25 06:09:59;;;;;;;12.02;5.63;;;19.50;99.90;;;;;;5049066;28;20198;-79
2023/05/25 06:12:25;;;;;;;11.90;5.25;;;19.70;99.90;;;;;;5048119;28;20324;-80
2023/05/25 06:14:51;;;;;;;8.07;5.28;;;19.70;99.90;;;;;;5067818;28;20052;-80
2023/05/25 06:17:17;;;;;;;11.45;5.78;;;19.80;99.90;;;;;;5049877;28;20053;-79
2023/05/25 06:19:43;;;;;;;10.25;4.63;;;20.00;99.90;;;;;;5067536;28;20037;-79
2023/05/25 06:22:09;;;;;;;10.98;5.57;;;20.30;99.90;;;;;;5067435;28;20525;-80
2023/05/25 06:24:34;;;;;;;8.65;4.18;;;20.30;99.90;;;;;;5064501;28;20041;-80
2023/05/25 06:27:02;;;;;;;8.43;4.45;;;20.30;99.90;;;;;;5067143;28;20048;-80
2023/05/25 06:29:28;;;;;;;9.48;4.65;;;20.10;99.90;;;;;;5067100;28;20040;-80
2023/05/25 06:31:53;;;;;;;8.50;4.15;;;19.30;99.90;;;;;;5067484;28;20044;-80
2023/05/25 06:34:19;;;;;;;12.75;4.88;;;18.50;99.90;;;;;;5048406;28;20040;-80
2023/05/25 06:36:46;;;;;;;9.05;4.18;;;17.70;99.90;;;;;;5049514;28;20045;-80
2023/05/25 06:39:12;;;;;;;10.82;4.00;;;17.10;99.90;;;;;;5032505;28;20049;-80
2023/05/25 06:41:39;;;;;;;8.15;3.60;;;16.60;99.90;;;;;;5067135;28;20037;-80
2023/05/25 06:44:05;;;;;;;9.93;4.05;;;16.40;99.90;;;;;;5062386;28;20045;-80
2023/05/25 06:46:31;;;;;;;11.65;4.20;;;16.10;99.90;;;;;;5037535;28;20115;-80
2023/05/25 06:49:00;;;;;;;5.75;3.45;;;15.90;99.90;;;;;;5067346;28;20193;-79
2023/05/25 06:51:26;;;;;;;11.73;3.80;;;15.70;99.90;;;;;;5049541;28;20379;-78
2023/05/25 06:53:54;;;;;;;9.32;4.20;;;15.70;99.90;;;;;;5031678;28;20052;-79
2023/05/25 06:56:20;;;;;;;6.63;3.22;;;15.70;99.90;;;;;;5047231;28;20056;-79
2023/05/25 06:58:46;;;;;;;10.60;3.47;;;15.70;99.90;;;;;;5049425;28;20051;-80
2023/05/25 07:01:12;;;;;;;9.25;3.67;;;15.80;99.90;;;;;;5067260;28;20132;-79
2023/05/25 07:03:38;;;;;;;6.13;3.20;;;15.80;99.90;;;;;;5049336;28;20832;-79
2023/05/25 07:06:05;;;;;;;10.73;3.55;;;15.70;99.90;;;;;;5066374;28;20048;-79
2023/05/25 07:08:31;;;;;;;8.65;3.20;;;15.80;99.90;;;;;;5067238;28;20044;-80
2023/05/25 07:10:56;;;;;;;6.00;3.17;;;15.80;99.90;;;;;;5066863;28;20102;-80
2023/05/25 07:13:22;;;;;;;9.73;4.22;;;16.00;99.90;;;;;;5051486;28;20444;-79
2023/05/25 07:30:35;;;;;;;8.98;3.25;;;15.80;99.90;;;;;;5080565;27;1380423;-81
2023/05/25 07:33:00;;;;;;;9.85;3.90;;;16.70;99.90;;;;;;5089626;28;20056;-81
2023/05/25 07:35:26;;;;;;;8.65;3.33;;;16.80;99.90;;;;;;5107060;28;20044;-81
2023/05/25 07:37:59;;;;;;;10.63;3.80;;;16.80;99.90;;;;;;5107130;28;20542;-81
2023/05/25 07:40:25;;;;;;;12.30;3.65;;;16.60;99.90;;;;;;5105629;28;20043;-81
2023/05/25 07:42:52;;;;;;;7.93;3.08;;;16.70;99.90;;;;;;5106950;28;20036;-81
2023/05/25 07:45:18;;;;;;;7.90;3.17;;;16.80;99.90;;;;;;5106618;28;20605;-81
2023/05/25 07:47:44;;;;;;;9.70;3.90;;;16.60;99.90;;;;;;5107579;28;20047;-82
2023/05/25 07:50:10;;;;;;;9.05;3.20;;;16.60;99.90;;;;;;5105492;28;20048;-81
2023/05/25 07:52:37;;;;;;;7.38;2.83;;;16.60;99.90;;;;;;5090641;28;20048;-81
2023/05/25 07:55:05;;;;;;;10.38;3.63;;;16.60;99.90;;;;;;5069964;28;20121;-83
2023/05/25 07:57:30;;;;;;;8.98;3.45;;;16.50;99.90;;;;;;5092930;28;20213;-82
2023/05/25 07:59:56;;;;;;;10.18;3.28;;;16.50;99.90;;;;;;5097212;28;20866;-81
2023/05/25 08:02:21;;;;;;;10.60;3.67;;;16.60;99.90;;;;;;5097342;28;20114;-81
2023/05/25 08:04:47;;;;;;;10.65;3.67;;;16.60;99.90;;;;;;5096546;28;20040;-81
2023/05/25 08:07:13;;;;;;;12.13;4.20;;;16.80;99.90;;;;;;5100949;28;20444;-81
2023/05/25 08:09:38;;;;;;;7.88;3.22;;;17.40;99.90;;;;;;5094887;28;20786;-81
2023/05/25 08:12:05;;;;;;;11.00;3.72;;;17.10;99.10;;;;;;5089529;28;20178;-81
2023/05/25 08:14:31;;;;;;;12.57;3.65;;;17.20;98.50;;;;;;5092857;28;20047;-81
2023/05/25 08:16:56;;;;;;;9.13;3.33;;;17.20;97.90;;;;;;5075652;28;20037;-81
2023/05/25 08:19:22;;;;;;;9.32;3.47;;;17.30;96.80;;;;;;5090174;28;20051;-80
2023/05/25 08:21:47;;;;;;;12.82;3.65;;;17.10;95.60;;;;;;5090968;28;20044;-81
2023/05/25 08:24:16;;;;;;;14.63;3.95;;;17.00;95.70;;;;;;5092591;28;20044;-81
2023/05/25 08:26:42;;;;;;;7.93;3.53;;;16.80;95.90;;;;;;5109743;28;20047;-82
2023/05/25 08:29:07;;;;;;;12.48;3.38;;;16.50;96.50;;;;;;5102588;28;20051;-81
2023/05/25 08:31:33;;;;;;;12.23;3.63;;;16.60;96.80;;;;;;5091041;28;20090;-81
2023/05/25 08:33:59;;;;;;;12.57;3.80;;;16.70;97.00;;;;;;5091951;28;20048;-81
2023/05/25 08:36:26;;;;;;;11.27;3.40;;;16.90;96.60;;;;;;5092369;28;20137;-81
2023/05/25 08:38:52;;;;;;;8.80;3.30;;;16.80;96.30;;;;;;5068700;28;20047;-81
2023/05/25 08:41:18;;;;;;;11.98;4.05;;;17.10;95.50;;;;;;5085927;28;20041;-82
2023/05/25 08:43:44;;;;;;;10.68;3.58;;;17.00;94.70;;;;;;5071689;28;20040;-80
2023/05/25 08:46:10;;;;;;;11.48;3.30;;;16.90;94.70;;;;;;5069815;28;20052;-82
2023/05/25 08:48:37;;;;;;;10.38;3.92;;;16.80;94.60;;;;;;5068877;28;20041;-83
2023/05/25 08:51:07;;;;;;;13.13;4.50;;;16.80;95.00;;;;;;5068618;28;20059;-82
2023/05/25 08:53:38;;;;;;;12.07;3.70;;;16.90;95.10;;;;;;5052564;28;20399;-82
2023/05/25 08:56:17;;;;;;;8.02;3.40;;;16.90;94.50;;;;;;5069162;28;20456;-82
2023/05/25 08:58:51;;;;;;;14.23;4.13;;;16.90;94.20;;;;;;5070949;28;20049;-83
2023/05/25 09:01:19;;;;;;;17.65;4.10;;;16.80;94.50;;;;;;5088408;28;20605;-83
2023/05/25 09:03:46;;;;;;;9.80;3.42;;;17.10;94.90;;;;;;5089330;28;20750;-82
2023/05/25 09:06:13;;;;;;;16.77;4.13;;;17.00;94.40;;;;;;5088367;28;20040;-83
2023/05/25 09:08:38;;;;;;;19.90;4.57;;;17.00;92.90;;;;;;5088672;28;20491;-83
2023/05/25 09:11:06;;;;;;;11.40;4.28;;;17.20;92.60;;;;;;5089481;28;20051;-83
2023/05/25 09:13:32;;;;;;;14.82;4.13;;;17.20;91.40;;;;;;5076526;28;20040;-85
2023/05/25 09:15:58;;;;;;;18.55;4.82;;;17.10;90.80;;;;;;5085313;28;20384;-82
2023/05/25 09:18:23;;;;;;;12.30;4.15;;;17.10;90.60;;;;;;5085835;28;20131;-83
2023/05/25 09:20:49;;;;;;;18.85;4.35;;;17.10;90.50;;;;;;5095072;28;20063;-82
2023/05/25 09:23:15;;;;;;;8.43;3.05;;;17.30;90.00;;;;;;5067540;28;20049;-83
2023/05/25 09:25:41;;;;;;;12.05;3.53;;;17.30;87.70;;;;;;5094417;28;20044;-82
2023/05/25 09:28:10;;;;;;;13.30;3.70;;;17.30;86.80;;;;;;5084778;28;20044;-83
2023/05/25 09:30:35;;;;;;;14.23;3.78;;;17.30;86.50;;;;;;5075635;28;20053;-83
2023/05/25 09:33:11;;;;;;;12.73;3.63;;;17.30;86.60;;;;;;5051126;28;20388;-82
2023/05/25 09:35:38;;;;;;;10.50;3.88;;;17.60;85.50;;;;;;5067712;28;20048;-83
2023/05/25 09:38:03;;;;;;;12.57;4.10;;;17.60;83.90;;;;;;5050271;28;20049;-82
2023/05/25 09:40:34;;;;;;;13.52;3.75;;;17.40;83.10;;;;;;5069489;28;20126;-83
2023/05/25 09:43:01;;;;;;;20.90;4.47;;;17.20;83.40;;;;;;5069413;28;20045;-83
2023/05/25 09:45:27;;;;;;;12.10;3.88;;;17.20;84.60;;;;;;5069146;28;20036;-82
2023/05/25 09:47:56;;;;;;;16.33;4.15;;;17.20;84.80;;;;;;5069390;28;20411;-83
2023/05/25 09:50:25;;;;;;;12.93;3.78;;;17.30;84.70;;;;;;5067955;28;20048;-83
2023/05/25 09:52:55;;;;;;;11.82;3.25;;;17.60;84.60;;;;;;5068817;28;20056;-83
2023/05/25 09:55:21;;;;;;;14.55;3.75;;;17.70;83.80;;;;;;5068756;28;20514;-83
2023/05/25 09:57:51;;;;;;;15.32;4.28;;;17.70;82.00;;;;;;5067163;28;20052;-83
2023/05/25 10:00:17;;;;;;;26.88;4.22;;;17.90;81.90;;;;;;5082646;28;20060;-83
2023/05/25 10:02:43;;;;;;;12.20;4.22;;;18.20;81.00;;;;;;5087672;28;20112;-82
2023/05/25 10:05:08;;;;;;;13.20;3.65;;;19.00;80.10;;;;;;5089342;28;20402;-83
2023/05/25 10:07:37;;;;;;;12.32;3.72;;;18.80;78.10;;;;;;5087844;28;20044;-83
2023/05/25 10:10:08;;;;;;;13.43;3.50;;;18.60;75.10;;;;;;5090049;28;20056;-82
2023/05/25 10:12:34;;;;;;;11.75;4.05;;;18.50;75.00;;;;;;5086604;28;20062;-82
2023/05/25 10:15:02;;;;;;;10.60;3.55;;;18.20;75.50;;;;;;5087237;28;20154;-82
2023/05/25 10:17:31;;;;;;;11.98;3.47;;;18.20;75.60;;;;;;5073840;28;20063;-82
2023/05/25 10:19:59;;;;;;;12.20;4.00;;;18.40;75.60;;;;;;5076147;28;20137;-82
2023/05/25 10:22:37;;;;;;;12.75;3.55;;;18.50;75.20;;;;;;5066571;28;20067;-82
2023/05/25 10:25:16;;;;;;;12.40;3.85;;;18.40;72.50;;;;;;5074951;28;20036;-82
2023/05/25 10:27:59;;;;;;;11.35;3.75;;;18.30;72.30;;;;;;5072988;28;20048;-81
2023/05/25 10:30:26;;;;;;;12.52;4.18;;;18.40;73.70;;;;;;5069543;28;20515;-81
2023/05/25 10:32:55;;;;;;;11.98;3.55;;;18.60;74.40;;;;;;5085514;28;20044;-81
2023/05/25 10:35:21;;;;;;;12.70;3.53;;;18.80;73.20;;;;;;5070606;28;20162;-82
2023/05/25 10:37:49;;;;;;;14.68;3.95;;;18.90;72.60;;;;;;5071945;28;20106;-81
2023/05/25 10:40:15;;;;;;;12.27;3.78;;;19.00;72.20;;;;;;5079518;28;20048;-81
2023/05/25 10:42:41;;;;;;;14.60;4.22;;;18.80;71.30;;;;;;5067821;28;20097;-81
2023/05/25 10:45:08;;;;;;;12.93;3.50;;;18.70;71.50;;;;;;5070561;28;20043;-82
2023/05/25 10:47:42;;;;;;;14.07;4.15;;;18.70;71.30;;;;;;5069332;28;20064;-82
2023/05/25 10:50:23;;;;;;;8.90;3.40;;;18.50;70.50;;;;;;5070573;28;20479;-81
2023/05/25 10:53:04;;;;;;;12.43;3.50;;;18.40;70.80;;;;;;5081250;28;20123;-82
2023/05/25 10:55:59;;;;;;;12.82;3.88;;;18.40;70.40;;;;;;5065897;28;20135;-82
2023/05/25 10:58:27;;;;;;;11.20;3.58;;;18.40;69.70;;;;;;5066884;28;20238;-82
2023/05/25 11:01:00;;;;;;;11.77;3.28;;;18.60;71.10;;;;;;5078082;28;20399;-82
2023/05/25 11:03:55;;;;;;;12.38;3.42;;;18.50;69.10;;;;;;5085511;28;20139;-82
2023/05/25 11:06:39;;;;;;;12.88;3.75;;;18.40;68.10;;;;;;5092356;28;20187;-82
2023/05/25 11:09:05;;;;;;;17.25;3.45;;;18.50;68.90;;;;;;5106151;28;20105;-82
2023/05/25 11:11:44;;;;;;;13.43;3.88;;;18.70;68.70;;;;;;5107804;28;20062;-81
2023/05/25 11:14:22;;;;;;;11.48;3.40;;;18.60;67.70;;;;;;5097180;28;20230;-82
2023/05/25 11:17:10;;;;;;;13.77;3.72;;;18.40;67.30;;;;;;5085291;28;20055;-82
2023/05/25 11:19:47;;;;;;;11.63;3.63;;;18.20;67.70;;;;;;5099479;28;20158;-83
2023/05/25 11:22:26;;;;;;;12.57;4.22;;;18.40;69.00;;;;;;5087537;28;20036;-82
2023/05/25 11:24:52;;;;;;;10.35;3.50;;;18.30;67.60;;;;;;5087011;28;20055;-82
2023/05/25 11:27:30;;;;;;;11.40;4.05;;;18.40;68.20;;;;;;5086490;28;20055;-82
2023/05/25 11:29:57;;;;;;;11.02;3.38;;;18.60;67.70;;;;;;5086477;28;20056;-82
2023/05/25 11:32:24;;;;;;;11.30;3.90;;;18.70;67.80;;;;;;5086813;28;20502;-83
2023/05/25 11:34:56;;;;;;;11.65;3.45;;;18.80;67.70;;;;;;5083202;28;20045;-83
2023/05/25 11:37:27;;;;;;;12.07;3.53;;;18.50;66.90;;;;;;5098103;28;20502;-83
2023/05/25 11:39:54;;;;;;;12.75;3.75;;;18.50;67.50;;;;;;5088614;28;20517;-84
2023/05/25 11:42:21;;;;;;;10.55;4.00;;;18.70;66.90;;;;;;5085698;28;20089;-82
2023/05/25 11:44:47;;;;;;;13.68;4.47;;;19.00;66.50;;;;;;5084898;28;20040;-83
2023/05/25 11:47:13;;;;;;;12.57;4.40;;;18.50;66.10;;;;;;5087246;28;20421;-81
2023/05/25 11:49:44;;;;;;;13.20;3.97;;;18.50;66.60;;;;;;5086398;28;20055;-82
2023/05/25 11:52:12;;;;;;;14.52;4.65;;;18.20;66.80;;;;;;5079549;28;20036;-81
2023/05/25 11:54:40;;;;;;;12.60;4.20;;;18.20;67.30;;;;;;5078259;28;20052;-81
2023/05/25 11:57:20;;;;;;;13.75;4.07;;;18.30;67.50;;;;;;5073029;28;20092;-81
2023/05/25 11:59:54;;;;;;;13.25;4.10;;;18.40;65.80;;;;;;5070344;28;20043;-82
2023/05/25 12:02:21;;;;;;;9.32;3.42;;;18.40;66.60;;;;;;5070545;28;20197;-81
2023/05/25 12:05:06;;;;;;;10.82;4.18;;;18.40;67.40;;;;;;5069902;28;20069;-81
2023/05/25 12:07:33;;;;;;;14.00;4.10;;;18.50;66.00;;;;;;5083475;28;20126;-81
2023/05/25 12:10:09;;;;;;;12.88;3.92;;;19.10;66.40;;;;;;5097514;28;20084;-81
2023/05/25 12:12:46;;;;;;;12.38;4.18;;;18.80;64.40;;;;;;5113647;28;20070;-80
2023/05/25 12:15:14;;;;;;;12.82;4.00;;;18.80;65.40;;;;;;5116296;28;20074;-81
2023/05/25 12:17:43;;;;;;;14.00;4.22;;;18.50;66.00;;;;;;5115446;28;20082;-80
2023/05/25 12:20:11;;;;;;;13.45;4.40;;;18.60;66.90;;;;;;5115118;28;20040;-81
2023/05/25 12:22:40;;;;;;;14.07;4.00;;;18.30;67.10;;;;;;5114632;28;20176;-81
2023/05/25 12:25:09;;;;;;;11.07;3.70;;;18.30;66.40;;;;;;5114643;28;20462;-81
2023/05/25 12:27:35;;;;;;;15.20;4.63;;;18.50;66.20;;;;;;5115693;28;20035;-80
2023/05/25 12:30:01;;;;;;;15.57;4.07;;;18.50;66.10;;;;;;5114772;28;20066;-80
2023/05/25 12:32:27;;;;;;;12.95;4.10;;;18.60;66.70;;;;;;5116580;28;20071;-81
2023/05/25 12:35:05;;;;;;;18.17;4.60;;;18.90;66.90;;;;;;5116234;28;20387;-81
2023/05/25 12:37:31;;;;;;;12.00;4.05;;;18.50;66.50;;;;;;5115493;28;20051;-81
2023/05/25 12:39:57;;;;;;;13.52;3.85;;;18.50;66.40;;;;;;5107644;28;20076;-81
2023/05/25 12:42:25;;;;;;;17.70;4.43;;;18.50;66.10;;;;;;5115287;28;20067;-81
2023/05/25 12:44:56;;;;;;;15.00;4.43;;;18.50;66.30;;;;;;5118129;28;20051;-81
2023/05/25 12:47:23;;;;;;;15.25;4.55;;;18.50;66.60;;;;;;5118565;28;20036;-81
2023/05/25 12:49:53;;;;;;;14.30;4.60;;;18.60;67.10;;;;;;5113125;27;20040;-81
2023/05/25 12:52:35;;;;;;;16.70;4.20;;;18.70;66.90;;;;;;5109818;28;20115;-81
2023/05/25 12:55:26;;;;;;;15.98;4.47;;;18.70;65.80;;;;;;5116797;28;20508;-81
2023/05/25 12:57:57;;;;;;;14.68;4.50;;;18.80;66.20;;;;;;5115841;28;20055;-80
2023/05/25 13:00:30;;;;;;;14.45;4.15;;;18.80;66.00;;;;;;5118286;28;20531;-81
2023/05/25 13:02:56;;;;;;;15.25;4.30;;;18.70;65.50;;;;;;5111766;28;20047;-81